createdAt,value
2022-11-24T00:16:12.532Z,0
2022-11-24T00:56:12.356Z,0
2022-11-24T01:16:12.441Z,0
2022-11-24T01:36:12.368Z,0
2022-11-24T01:56:12.259Z,0
2022-11-24T02:16:19.281Z,0
2022-11-24T02:36:12.232Z,0
2022-11-24T02:56:12.180Z,0
2022-11-24T03:16:12.228Z,0
2022-11-24T03:36:19.151Z,0
2022-11-24T03:56:12.095Z,0
2022-11-24T04:16:12.172Z,0
2022-11-24T04:36:12.031Z,0
2022-11-24T04:56:19.049Z,0
2022-11-24T05:16:12.123Z,0
2022-11-24T05:36:12.000Z,0
2022-11-24T05:56:12.069Z,0
2022-11-24T06:16:11.998Z,2
2022-11-24T06:36:11.896Z,37
2022-11-24T06:56:16.077Z,341
2022-11-24T07:16:12.017Z,656
2022-11-24T07:36:11.857Z,682
2022-11-24T07:56:11.817Z,1527
2022-11-24T08:16:11.916Z,2025
2022-11-24T08:36:11.762Z,1358
2022-11-24T08:56:11.758Z,1548
2022-11-24T09:16:11.734Z,2690
2022-11-24T09:36:11.719Z,3758
2022-11-24T09:56:11.674Z,1950
2022-11-24T10:16:11.883Z,3255
2022-11-24T10:36:11.585Z,2681
2022-11-24T10:56:11.592Z,2563
2022-11-24T11:16:11.658Z,2634
2022-11-24T11:36:11.729Z,2659
2022-11-24T11:56:11.553Z,4374
2022-11-24T12:16:11.539Z,4045
2022-11-24T12:36:11.423Z,2529
2022-11-24T12:56:11.391Z,2034
2022-11-24T13:36:11.321Z,1155
2022-11-24T13:56:11.421Z,779
2022-11-24T14:16:11.293Z,381
2022-11-24T14:36:11.218Z,260
2022-11-24T14:56:11.184Z,105
2022-11-24T15:16:11.225Z,14
2022-11-24T15:36:11.144Z,0
2022-11-24T15:56:11.097Z,0
2022-11-24T16:16:11.141Z,0
2022-11-24T16:36:11.066Z,0
2022-11-24T16:56:10.999Z,0
2022-11-24T17:16:11.148Z,0
2022-11-24T17:56:15.903Z,0
2022-11-24T18:16:10.997Z,0
2022-11-24T18:36:10.897Z,0
2022-11-24T18:56:11.058Z,0
2022-11-24T19:16:10.958Z,0
2022-11-24T19:36:10.817Z,0
2022-11-24T19:56:10.780Z,0
2022-11-24T20:16:10.815Z,0
2022-11-24T20:36:10.696Z,0
2022-11-24T20:56:10.799Z,0
2022-11-24T21:16:10.765Z,0
2022-11-24T21:36:10.666Z,0
2022-11-24T22:16:10.908Z,0
2022-11-24T22:36:10.557Z,0
2022-11-24T22:56:10.574Z,0
2022-11-24T23:16:10.620Z,0
2022-11-24T23:36:10.540Z,0
2022-11-24T23:56:10.457Z,0
